Time;durP1;ratioP1;P1;durP2;ratioP2;P2;SDS_P1;SDS_P2;PMS_P1;PMS_P2;Temp;Humidity;BMP_temperature;BMP_pressure;BME280_temperature;BME280_humidity;BME280_pressure;Samples;Min_cycle;Max_cycle;Signal;HPM_P1;HPM_P2
2023/07/26 00:00:26;;;;;;;6.18;2.03;;;;;;;15.51;100.00;100452.78;5087807;28;20086;-77
2023/07/26 00:03:12;;;;;;;5.60;2.08;;;;;;;15.44;100.00;100447.69;5069307;28;20028;-77
2023/07/26 00:05:57;;;;;;;5.35;2.22;;;;;;;15.42;100.00;100442.41;5051505;28;20099;-78
2023/07/26 00:08:43;;;;;;;4.70;2.00;;;;;;;15.37;100.00;100441.75;5074548;28;20036;-78
2023/07/26 00:11:29;;;;;;;4.47;1.77;;;;;;;15.31;100.00;100449.50;5071132;28;20028;-78
2023/07/26 00:14:15;;;;;;;4.30;1.83;;;;;;;15.31;100.00;100455.09;5064117;28;20068;-77
2023/07/26 00:17:01;;;;;;;4.68;1.88;;;;;;;15.27;100.00;100447.69;5048747;28;20033;-78
2023/07/26 00:19:47;;;;;;;2.67;1.80;;;;;;;15.24;100.00;100454.75;5043604;28;20072;-78
2023/07/26 00:22:33;;;;;;;10.02;2.10;;;;;;;15.21;100.00;100455.41;5054194;28;20123;-77
2023/07/26 00:25:18;;;;;;;4.80;2.00;;;;;;;15.17;100.00;100446.00;5054036;28;20074;-77
2023/07/26 00:28:04;;;;;;;6.28;2.20;;;;;;;15.13;100.00;100447.84;5048585;28;20404;-77
2023/07/26 00:30:50;;;;;;;7.15;2.28;;;;;;;15.08;100.00;100450.78;5042277;28;20129;-77
2023/07/26 00:33:36;;;;;;;4.93;2.03;;;;;;;15.04;100.00;100446.97;5079088;28;20119;-77
2023/07/26 00:36:22;;;;;;;3.80;2.20;;;;;;;15.00;100.00;100448.78;5040288;28;20033;-77
2023/07/26 00:39:07;;;;;;;4.45;2.20;;;;;;;15.00;100.00;100454.38;5069655;28;20040;-77
2023/07/26 00:41:53;;;;;;;4.65;2.17;;;;;;;14.92;100.00;100456.81;5052621;28;20041;-77
2023/07/26 00:44:39;;;;;;;3.58;2.10;;;;;;;14.93;100.00;100460.44;5038611;28;20033;-77
2023/07/26 00:47:25;;;;;;;5.03;2.40;;;;;;;14.88;100.00;100455.00;5032320;28;20054;-77
2023/07/26 00:50:10;;;;;;;4.63;2.58;;;;;;;14.81;100.00;100458.25;5051833;28;20109;-77
2023/07/26 00:52:56;;;;;;;5.60;2.33;;;;;;;14.78;100.00;100452.50;5077653;28;20043;-78
2023/07/26 00:55:43;;;;;;;6.78;2.55;;;;;;;14.78;100.00;100447.72;5040897;28;20033;-78
2023/07/26 00:58:29;;;;;;;3.38;2.03;;;;;;;14.74;100.00;100446.75;5056414;28;20111;-78
2023/07/26 01:01:15;;;;;;;4.47;2.15;;;;;;;14.73;100.00;100445.06;5052371;28;20485;-78
2023/07/26 01:04:01;;;;;;;5.85;2.60;;;;;;;14.69;100.00;100441.28;5051231;28;20547;-78
2023/07/26 01:06:53;;;;;;;7.72;2.80;;;;;;;14.66;100.00;100441.94;5046628;28;20025;-78
2023/07/26 01:09:46;;;;;;;5.00;2.25;;;;;;;14.67;100.00;100449.16;5054716;28;20036;-78
2023/07/26 01:12:41;;;;;;;4.50;2.03;;;;;;;14.65;100.00;100443.88;5059712;28;20051;-78
2023/07/26 01:15:30;;;;;;;5.50;2.40;;;;;;;14.60;100.00;100443.22;5063063;28;20052;-78
2023/07/26 01:18:16;;;;;;;6.82;2.25;;;;;;;14.58;100.00;100442.72;5052770;28;20055;-78
2023/07/26 01:21:02;;;;;;;8.43;2.50;;;;;;;14.53;100.00;100435.31;5059724;28;20039;-78
2023/07/26 01:23:48;;;;;;;3.90;2.33;;;;;;;14.50;100.00;100439.53;5058212;28;20025;-78
2023/07/26 01:26:34;;;;;;;4.43;2.08;;;;;;;14.49;100.00;100439.88;5083058;28;20557;-78
2023/07/26 01:29:19;;;;;;;3.35;2.00;;;;;;;14.48;100.00;100433.44;5060379;28;20027;-78
2023/07/26 01:32:09;;;;;;;3.63;2.22;;;;;;;14.45;100.00;100431.28;5075429;28;20033;-78
2023/07/26 01:34:57;;;;;;;6.18;2.30;;;;;;;14.44;100.00;100435.25;5090626;28;20094;-78
2023/07/26 01:37:43;;;;;;;4.18;2.10;;;;;;;14.43;100.00;100430.81;5065964;28;20036;-78
2023/07/26 01:40:29;;;;;;;4.10;1.90;;;;;;;14.42;100.00;100434.72;5070195;28;20043;-78
2023/07/26 01:43:15;;;;;;;5.55;2.30;;;;;;;14.37;100.00;100426.47;5055176;28;20036;-78
2023/07/26 01:46:01;;;;;;;4.97;2.08;;;;;;;14.36;100.00;100421.22;5058083;28;20028;-77
2023/07/26 01:48:46;;;;;;;5.93;2.38;;;;;;;14.33;100.00;100419.91;5069003;28;20032;-78
2023/07/26 01:51:32;;;;;;;3.90;1.90;;;;;;;14.28;100.00;100420.03;5066487;28;20466;-78
2023/07/26 01:54:18;;;;;;;4.50;2.17;;;;;;;14.24;100.00;100414.28;5084768;28;20032;-78
2023/07/26 01:57:05;;;;;;;4.13;1.90;;;;;;;14.24;100.00;100421.84;5064341;28;20445;-78
2023/07/26 01:59:53;;;;;;;3.17;2.05;;;;;;;14.21;100.00;100417.72;5075320;28;20046;-78
2023/07/26 02:02:39;;;;;;;4.60;2.42;;;;;;;14.18;100.00;100417.50;5075172;28;20035;-78
2023/07/26 02:05:25;;;;;;;3.58;2.30;;;;;;;14.15;100.00;100418.16;5058992;28;20060;-78
2023/07/26 02:08:11;;;;;;;6.07;2.17;;;;;;;14.09;100.00;100409.91;5083323;28;20047;-78
2023/07/26 02:10:57;;;;;;;4.03;2.47;;;;;;;14.06;100.00;100409.75;5081527;28;20381;-78
2023/07/26 02:13:43;;;;;;;5.78;2.00;;;;;;;14.00;100.00;100414.63;5076756;28;20044;-77
2023/07/26 02:16:28;;;;;;;3.38;1.67;;;;;;;13.96;100.00;100413.63;5038937;28;20128;-78
2023/07/26 02:19:15;;;;;;;4.97;2.20;;;;;;;13.94;100.00;100413.13;5077149;28;20027;-77
2023/07/26 02:22:00;;;;;;;5.13;2.05;;;;;;;13.86;100.00;100416.69;5066459;28;20434;-78
2023/07/26 02:24:46;;;;;;;3.13;1.98;;;;;;;13.82;100.00;100415.69;5051706;28;20518;-77
2023/07/26 02:27:32;;;;;;;3.60;2.00;;;;;;;13.81;100.00;100416.81;5070887;28;20058;-77
2023/07/26 02:30:18;;;;;;;3.67;1.90;;;;;;;13.80;100.00;100418.78;5055532;28;20094;-78
2023/07/26 02:33:05;;;;;;;2.58;1.83;;;;;;;13.77;100.00;100427.78;5096998;28;20040;-77
2023/07/26 02:35:51;;;;;;;4.28;2.15;;;;;;;13.73;100.00;100417.56;5073265;28;20040;-77
2023/07/26 02:38:36;;;;;;;3.17;1.88;;;;;;;13.73;100.00;100417.56;5068549;28;20050;-77
2023/07/26 02:41:22;;;;;;;2.55;1.70;;;;;;;13.74;100.00;100422.03;5057118;28;20099;-77
2023/07/26 02:44:08;;;;;;;3.75;1.88;;;;;;;13.73;100.00;100417.56;5065088;28;20051;-77
2023/07/26 02:46:54;;;;;;;5.43;2.33;;;;;;;13.74;100.00;100408.91;5074382;28;20047;-77
2023/07/26 02:49:39;;;;;;;3.13;1.75;;;;;;;13.72;100.00;100407.56;5089025;28;20036;-77
2023/07/26 02:52:25;;;;;;;4.32;2.08;;;;;;;13.74;100.00;100403.31;5096257;28;20031;-77
2023/07/26 02:55:11;;;;;;;5.97;2.03;;;;;;;13.73;100.00;100403.63;5075034;28;20027;-77
2023/07/26 02:57:57;;;;;;;4.93;2.10;;;;;;;13.75;100.00;100406.91;5077752;28;20031;-77
2023/07/26 03:00:43;;;;;;;4.72;2.03;;;;;;;13.76;100.00;100400.19;5090039;28;20032;-77
2023/07/26 03:03:29;;;;;;;5.32;1.85;;;;;;;13.74;100.00;100400.53;5063388;28;20398;-77
2023/07/26 03:06:15;;;;;;;3.65;1.80;;;;;;;13.73;100.00;100406.41;5072452;28;20061;-77
2023/07/26 03:09:00;;;;;;;5.43;2.20;;;;;;;13.73;100.00;100395.25;5055437;28;20036;-77
2023/07/26 03:11:46;;;;;;;3.20;1.90;;;;;;;13.69;100.00;100400.66;5055829;28;20043;-77
2023/07/26 03:14:32;;;;;;;5.88;1.98;;;;;;;13.70;100.00;100407.03;5073477;28;20031;-77
2023/07/26 03:17:18;;;;;;;2.83;1.77;;;;;;;13.64;100.00;100404.38;5072815;28;20028;-77
2023/07/26 03:20:04;;;;;;;3.63;1.70;;;;;;;13.60;100.00;100397.78;5068176;28;20031;-77
2023/07/26 03:22:51;;;;;;;4.07;1.85;;;;;;;13.59;100.00;100387.75;5073910;28;20472;-77
2023/07/26 03:25:37;;;;;;;4.65;2.15;;;;;;;13.61;100.00;100390.25;5084034;28;20085;-77
2023/07/26 03:28:23;;;;;;;3.88;1.88;;;;;;;13.53;100.00;100396.59;5065635;28;20039;-76
2023/07/26 03:31:08;;;;;;;5.95;2.17;;;;;;;13.53;100.00;100391.81;5061710;28;20063;-76
2023/07/26 03:33:54;;;;;;;4.10;2.20;;;;;;;13.48;100.00;100393.91;5076597;28;20039;-76
2023/07/26 03:36:40;;;;;;;5.25;1.90;;;;;;;13.49;100.00;100390.00;5097162;28;20406;-77
2023/07/26 03:39:26;;;;;;;5.80;2.05;;;;;;;13.51;100.00;100387.69;5065572;28;20488;-76
2023/07/26 03:42:12;;;;;;;4.13;2.08;;;;;;;13.49;100.00;100390.81;5085164;28;20052;-77
2023/07/26 03:44:57;;;;;;;5.35;2.30;;;;;;;13.45;100.00;100388.97;5097405;28;20028;-78
2023/07/26 03:47:43;;;;;;;4.60;1.80;;;;;;;13.41;100.00;100388.78;5068532;28;20426;-78
2023/07/26 03:50:29;;;;;;;5.97;1.77;;;;;;;13.35;100.00;100390.06;5045979;28;20028;-78
2023/07/26 03:53:15;;;;;;;4.00;2.00;;;;;;;13.39;100.00;100388.28;5084562;28;20054;-78
2023/07/26 03:56:00;;;;;;;4.40;2.50;;;;;;;13.33;100.00;100387.56;5098156;28;20032;-77
2023/07/26 03:58:46;;;;;;;3.28;1.90;;;;;;;13.33;100.00;100381.16;5066790;28;20043;-78
2023/07/26 04:01:32;;;;;;;3.53;2.15;;;;;;;13.31;100.00;100387.06;5089639;28;20027;-78
2023/07/26 04:04:18;;;;;;;4.47;2.15;;;;;;;13.31;100.00;100383.44;5071018;28;20047;-78
2023/07/26 04:07:04;;;;;;;5.40;2.13;;;;;;;13.32;100.00;100371.16;5076007;28;20071;-78
2023/07/26 04:09:50;;;;;;;3.38;1.90;;;;;;;13.33;100.00;100375.59;5098677;28;20032;-78
2023/07/26 04:12:35;;;;;;;3.05;2.10;;;;;;;13.30;100.00;100376.22;5070533;28;20047;-78
2023/07/26 04:15:21;;;;;;;3.90;1.75;;;;;;;13.31;100.00;100386.22;5069534;28;20040;-78
2023/07/26 04:18:07;;;;;;;3.90;1.95;;;;;;;13.32;100.00;100380.34;5064688;28;20031;-77
2023/07/26 04:20:53;;;;;;;4.72;2.00;;;;;;;13.36;100.00;100377.75;5073201;28;20106;-78
2023/07/26 04:23:39;;;;;;;3.53;1.80;;;;;;;13.36;100.00;100383.31;5064898;28;20028;-78
2023/07/26 04:26:25;;;;;;;5.13;2.10;;;;;;;13.42;100.00;100368.09;5067818;28;20059;-78
2023/07/26 04:29:10;;;;;;;4.80;2.00;;;;;;;13.38;100.00;100367.09;5076527;28;20411;-78
2023/07/26 04:31:56;;;;;;;3.17;2.10;;;;;;;13.38;100.00;100367.09;5076892;28;20032;-77
2023/07/26 04:34:42;;;;;;;2.92;1.88;;;;;;;13.41;100.00;100366.47;5074574;28;20033;-77
2023/07/26 04:37:28;;;;;;;2.33;1.58;;;;;;;13.45;100.00;100366.66;5098499;28;20036;-78
2023/07/26 04:40:13;;;;;;;2.92;1.92;;;;;;;13.46;100.00;100369.13;5085593;28;20126;-78
2023/07/26 04:42:59;;;;;;;3.88;2.10;;;;;;;13.49;100.00;100368.50;5067951;28;20027;-78
2023/07/26 04:45:48;;;;;;;3.20;2.30;;;;;;;13.51;100.00;100376.53;5081749;28;20399;-78
2023/07/26 04:48:34;;;;;;;4.88;2.30;;;;;;;13.53;100.00;100375.09;5089504;28;20402;-78
2023/07/26 04:51:21;;;;;;;3.45;2.17;;;;;;;13.53;100.00;100369.50;5078492;28;20047;-78
2023/07/26 04:54:06;;;;;;;3.72;2.33;;;;;;;13.56;100.00;100368.88;5073614;28;20040;-77
2023/07/26 04:56:52;;;;;;;4.75;2.17;;;;;;;13.59;100.00;100373.81;5063828;28;20028;-77
2023/07/26 04:59:38;;;;;;;4.32;2.20;;;;;;;13.62;100.00;100378.78;5070875;28;20498;-77
2023/07/26 05:02:24;;;;;;;5.00;2.30;;;;;;;13.64;100.00;100384.84;5068627;28;20028;-77
2023/07/26 05:05:09;;;;;;;4.38;2.17;;;;;;;13.69;100.00;100377.50;5068933;28;20039;-77
2023/07/26 05:07:55;;;;;;;6.25;2.35;;;;;;;13.68;100.00;100378.63;5073814;28;20079;-77
2023/07/26 05:10:41;;;;;;;2.38;2.00;;;;;;;13.74;100.00;100380.16;5057766;28;20547;-77
2023/07/26 05:13:27;;;;;;;4.68;2.10;;;;;;;13.74;100.00;100380.16;5061868;28;20045;-77
2023/07/26 05:16:13;;;;;;;4.00;2.55;;;;;;;13.74;100.00;100380.16;5054487;28;20033;-77
2023/07/26 05:18:59;;;;;;;5.78;2.47;;;;;;;13.76;100.00;100381.50;5075197;28;20092;-77
2023/07/26 05:21:44;;;;;;;4.78;1.98;;;;;;;13.80;100.00;100384.47;5065607;28;20446;-77
2023/07/26 05:24:30;;;;;;;4.38;2.35;;;;;;;13.82;100.00;100388.59;5075297;28;20044;-77
2023/07/26 05:27:16;;;;;;;4.05;2.30;;;;;;;13.87;100.00;100390.41;5088841;28;20035;-77
2023/07/26 05:30:02;;;;;;;3.15;2.45;;;;;;;13.93;100.00;100399.47;5091530;28;20043;-77
2023/07/26 05:32:48;;;;;;;3.60;2.40;;;;;;;13.97;100.00;100401.31;5069554;28;20091;-77
2023/07/26 05:35:34;;;;;;;5.93;2.80;;;;;;;13.98;100.00;100402.94;5060144;28;20047;-77
2023/07/26 05:38:19;;;;;;;3.83;2.58;;;;;;;14.00;100.00;100395.09;5076782;28;20024;-77
2023/07/26 05:41:05;;;;;;;3.80;2.50;;;;;;;14.06;100.00;100399.38;5065526;28;20032;-77
2023/07/26 05:43:51;;;;;;;3.55;2.40;;;;;;;14.10;100.00;100399.59;5082465;28;20024;-77
2023/07/26 05:46:37;;;;;;;4.53;2.45;;;;;;;14.13;100.00;100404.53;5070421;28;20476;-77
2023/07/26 05:49:23;;;;;;;6.38;3.70;;;;;;;14.18;100.00;100400.75;5067170;28;20031;-77
2023/07/26 05:52:08;;;;;;;4.65;3.22;;;;;;;14.22;100.00;100408.19;5076412;28;20042;-77
2023/07/26 05:54:55;;;;;;;5.45;3.00;;;;;;;14.25;100.00;100401.13;5059613;28;20036;-77
2023/07/26 05:57:41;;;;;;;4.80;3.10;;;;;;;14.30;100.00;100407.41;5089987;28;20059;-77
2023/07/26 06:00:26;;;;;;;6.20;2.97;;;;;;;14.33;100.00;100391.97;5074105;28;20087;-77
2023/07/26 06:03:12;;;;;;;6.45;3.45;;;;;;;14.36;100.00;100391.31;5081940;28;20054;-78
2023/07/26 06:05:58;;;;;;;10.00;4.10;;;;;;;14.41;100.00;100390.38;5068139;28;20505;-78
2023/07/26 06:08:44;;;;;;;4.78;2.72;;;;;;;14.46;100.00;100407.81;5094457;28;20045;-78
2023/07/26 06:11:29;;;;;;;6.50;2.83;;;;;;;14.50;100.00;100391.22;5072361;28;20043;-78
2023/07/26 06:14:15;;;;;;;5.38;3.33;;;;;;;14.56;100.00;100406.72;5069574;28;20120;-77
2023/07/26 06:17:01;;;;;;;5.97;3.20;;;;;;;14.61;100.00;100408.53;5063971;28;20032;-78
2023/07/26 06:19:47;;;;;;;4.57;2.50;;;;;;;14.65;100.00;100412.31;5076211;28;20070;-77
2023/07/26 06:22:33;;;;;;;4.78;3.20;;;;;;;14.70;100.00;100417.78;5075360;28;20027;-78
2023/07/26 06:25:19;;;;;;;5.60;2.58;;;;;;;14.75;100.00;100415.66;5086896;28;20039;-78
2023/07/26 06:28:05;;;;;;;3.97;2.85;;;;;;;14.82;100.00;100426.38;5048388;28;20025;-79
2023/07/26 06:30:50;;;;;;;5.57;3.10;;;;;;;14.87;100.00;100423.41;5080787;28;20032;-78
2023/07/26 06:33:36;;;;;;;6.00;3.20;;;;;;;14.94;100.00;100418.19;5049831;28;20044;-78
2023/07/26 06:36:22;;;;;;;4.32;2.65;;;;;;;14.98;100.00;100416.34;5071854;28;20036;-78
2023/07/26 06:39:08;;;;;;;4.60;2.58;;;;;;;15.07;100.00;100407.16;5055434;28;20031;-77
2023/07/26 06:41:54;;;;;;;6.05;3.22;;;;;;;15.11;100.00;100405.38;5088461;28;20066;-78
2023/07/26 06:44:39;;;;;;;7.95;3.47;;;;;;;15.18;100.00;100411.28;5075192;28;20064;-77
2023/07/26 06:47:25;;;;;;;4.78;2.53;;;;;;;15.27;100.00;100405.72;5082606;28;20039;-77
2023/07/26 06:50:11;;;;;;;5.88;2.95;;;;;;;15.33;100.00;100398.81;5069931;28;20119;-77
2023/07/26 06:52:57;;;;;;;6.53;3.13;;;;;;;15.39;100.00;100392.72;5082519;28;20032;-78
2023/07/26 06:55:43;;;;;;;8.32;3.15;;;;;;;15.48;100.00;100397.47;5078931;28;20032;-78
2023/07/26 06:58:28;;;;;;;5.20;3.28;;;;;;;15.55;100.00;100403.41;5055444;28;20666;-77
2023/07/26 07:01:17;;;;;;;7.30;3.50;;;;;;;15.63;100.00;100411.00;5064559;28;20174;-74
2023/07/26 07:04:03;;;;;;;5.07;2.70;;;;;;;15.71;100.00;100410.19;5082251;28;20027;-73
2023/07/26 07:06:49;;;;;;;7.18;3.42;;;;;;;15.85;100.00;100407.19;5053740;28;20126;-76
2023/07/26 07:09:35;;;;;;;6.72;3.83;;;;;;;16.02;100.00;100412.78;5060191;28;20047;-77
2023/07/26 07:12:21;;;;;;;7.25;3.20;;;;;;;16.24;100.00;100410.88;5060941;28;20091;-78
2023/07/26 07:15:07;;;;;;;7.60;3.33;;;;;;;16.47;100.00;100405.88;5074710;28;20044;-77
2023/07/26 07:17:53;;;;;;;8.43;2.95;;;;;;;16.72;100.00;100399.31;5061955;28;20031;-77
2023/07/26 07:20:38;;;;;;;6.97;2.65;;;;;;;16.98;100.00;100404.78;5073166;28;20032;-78
2023/07/26 07:23:28;;;;;;;9.40;3.58;;;;;;;17.30;100.00;100404.38;5076560;28;20496;-77
2023/07/26 07:26:13;;;;;;;7.15;2.75;;;;;;;17.58;100.00;100405.50;5081735;28;20428;-76
2023/07/26 07:28:59;;;;;;;4.53;2.63;;;;;;;17.88;100.00;100405.38;5073991;28;20472;-77
2023/07/26 07:31:45;;;;;;;8.40;2.80;;;;;;;18.15;100.00;100406.75;5075148;28;20377;-76
2023/07/26 07:34:31;;;;;;;4.95;2.70;;;;;;;18.39;100.00;100406.00;5083856;28;20521;-76
2023/07/26 07:37:16;;;;;;;5.57;2.30;;;;;;;18.62;100.00;100402.72;5062429;28;20045;-77
2023/07/26 07:40:03;;;;;;;7.90;2.55;;;;;;;18.81;100.00;100405.81;5079782;28;20105;-76
2023/07/26 07:42:49;;;;;;;6.07;2.63;;;;;;;18.95;100.00;100403.44;5057670;28;20043;-76
2023/07/26 07:45:39;;;;;;;9.27;2.35;;;;;;;19.12;100.00;100404.38;5064785;28;20522;-76
2023/07/26 07:48:26;;;;;;;7.43;2.83;;;;;;;19.24;100.00;100401.53;5062135;28;20032;-76
2023/07/26 07:51:12;;;;;;;5.82;2.88;;;;;;;19.37;100.00;100405.94;5076903;28;20035;-76
2023/07/26 07:53:57;;;;;;;6.53;2.90;;;;;;;19.47;100.00;100406.63;5069400;28;20046;-77
2023/07/26 07:56:43;;;;;;;4.55;2.40;;;;;;;19.56;100.00;100396.06;5077853;28;20396;-76
2023/07/26 07:59:29;;;;;;;9.57;2.80;;;;;;;19.63;100.00;100397.06;5072450;28;20033;-77
2023/07/26 08:02:15;;;;;;;8.32;3.28;;;;;;;19.75;100.00;100398.22;5074537;28;20045;-77
2023/07/26 08:05:01;;;;;;;8.23;2.80;;;;;;;19.81;100.00;100400.44;5078775;28;20033;-77
2023/07/26 08:07:50;;;;;;;8.52;2.83;;;;;;;19.88;100.00;100388.53;5098065;28;20527;-77
2023/07/26 08:10:38;;;;;;;8.80;2.65;;;;;;;19.97;100.00;100391.19;5085653;28;20039;-77
2023/07/26 08:13:24;;;;;;;6.38;2.42;;;;;;;20.06;100.00;100397.50;5070268;28;20055;-77
2023/07/26 08:16:10;;;;;;;6.38;2.70;;;;;;;20.14;100.00;100393.66;5069308;28;20078;-77
2023/07/26 08:19:01;;;;;;;7.32;3.03;;;;;;;20.25;100.00;100391.13;5064275;28;20032;-77
2023/07/26 08:21:46;;;;;;;7.13;3.40;;;;;;;20.34;100.00;100397.44;5069212;28;20035;-77
2023/07/26 08:24:32;;;;;;;7.97;3.05;;;;;;;20.48;100.00;100385.69;5099367;28;20020;-77
2023/07/26 08:27:18;;;;;;;9.63;2.80;;;;;;;20.58;100.00;100390.81;5073166;28;20499;-77
2023/07/26 08:30:04;;;;;;;6.63;2.90;;;;;;;20.70;100.00;100387.91;5073049;28;20036;-77
2023/07/26 08:32:51;;;;;;;7.57;2.05;;;;;;;20.84;100.00;100392.22;5066236;28;20042;-77
2023/07/26 08:35:37;;;;;;;8.20;2.70;;;;;;;20.97;100.00;100390.94;5077387;28;20403;-77
2023/07/26 08:38:23;;;;;;;8.57;2.53;;;;;;;21.12;100.00;100398.56;5089079;28;20473;-78
2023/07/26 08:41:08;;;;;;;7.40;2.65;;;;;;;21.33;100.00;100394.56;5070645;28;20513;-77
2023/07/26 08:43:55;;;;;;;7.03;2.33;;;;;;;21.49;100.00;100392.53;5060806;28;20039;-77
2023/07/26 08:46:41;;;;;;;7.93;2.22;;;;;;;21.68;100.00;100403.03;5106320;28;20035;-77
2023/07/26 08:49:27;;;;;;;6.25;2.30;;;;;;;21.89;100.00;100402.63;5059112;28;20036;-77
2023/07/26 08:52:14;;;;;;;5.65;2.60;;;;;;;22.12;100.00;100407.50;5052116;28;20435;-77
2023/07/26 08:55:00;;;;;;;9.65;2.70;;;;;;;22.31;100.00;100410.31;5075159;28;20415;-78
2023/07/26 08:57:45;;;;;;;3.78;1.77;;;;;;;22.51;100.00;100416.72;5055919;28;20404;-77
2023/07/26 09:00:31;;;;;;;7.13;2.10;;;;;;;22.67;100.00;100408.94;5072859;28;20067;-77
2023/07/26 09:03:17;;;;;;;6.68;1.90;;;;;;;22.83;100.00;100394.63;5070285;28;20036;-78
2023/07/26 09:06:05;;;;;;;6.47;2.10;;;;;;;23.01;100.00;100394.13;5070226;28;20144;-78
2023/07/26 09:08:51;;;;;;;4.53;1.70;;;;;;;23.13;100.00;100399.56;5096433;28;20073;-78
2023/07/26 09:11:38;;;;;;;5.63;1.90;;;;;;;23.29;100.00;100393.72;5056963;28;20201;-78
2023/07/26 09:14:27;;;;;;;6.22;2.00;;;;;;;23.46;100.00;100387.50;5083485;28;20040;-78
2023/07/26 09:17:13;;;;;;;6.70;2.05;;;;;;;23.59;100.00;100390.88;5063494;28;20036;-78
2023/07/26 09:19:58;;;;;;;4.47;1.55;;;;;;;23.72;100.00;100392.28;5053587;28;20039;-78
2023/07/26 09:22:44;;;;;;;7.82;2.17;;;;;;;23.84;100.00;100386.34;5074897;28;20031;-78
2023/07/26 09:25:34;;;;;;;6.85;2.20;;;;;;;23.97;100.00;100366.25;5073860;28;20035;-78
2023/07/26 09:28:21;;;;;;;7.18;1.90;;;;;;;24.09;100.00;100380.13;5093162;28;20042;-78
2023/07/26 09:31:07;;;;;;;11.88;2.38;;;;;;;24.16;100.00;100380.22;5048925;28;20035;-78
2023/07/26 09:33:53;;;;;;;6.95;2.22;;;;;;;24.23;100.00;100382.31;5053006;28;20491;-78
2023/07/26 09:36:48;;;;;;;4.82;2.00;;;;;;;24.34;100.00;100382.41;5070762;28;20521;-78
2023/07/26 09:39:34;;;;;;;6.13;1.75;;;;;;;24.45;100.00;100378.50;5060913;28;20040;-78
2023/07/26 09:42:20;;;;;;;5.68;1.95;;;;;;;24.58;100.00;100379.03;5062592;28;20035;-78
2023/07/26 09:45:06;;;;;;;6.30;1.88;;;;;;;24.68;100.00;100375.47;5058281;28;20052;-78
2023/07/26 09:47:52;;;;;;;5.68;1.60;;;;;;;24.83;100.00;100372.72;5081319;28;20027;-78
2023/07/26 09:50:38;;;;;;;7.63;1.98;;;;;;;24.94;100.00;100374.44;5057912;28;20035;-78
2023/07/26 09:53:24;;;;;;;6.90;1.67;;;;;;;25.02;100.00;100368.78;5080777;28;20032;-78
2023/07/26 09:56:10;;;;;;;5.18;1.70;;;;;;;25.06;100.00;100373.28;5070157;28;20033;-78
2023/07/26 09:58:56;;;;;;;5.40;2.08;;;;;;;25.05;100.00;100385.88;5058376;28;20451;-78
2023/07/26 10:01:43;;;;;;;5.90;1.65;;;;;;;25.08;100.00;100385.06;5062286;28;20041;-78
2023/07/26 10:04:32;;;;;;;7.38;1.73;;;;;;;25.14;100.00;100394.88;5082593;28;20040;-77
2023/07/26 10:07:18;;;;;;;7.30;1.80;;;;;;;25.22;100.00;100381.53;5095119;28;20027;-78
2023/07/26 10:10:05;;;;;;;6.15;1.58;;;;;;;25.29;100.00;100386.44;5053880;28;20039;-78
2023/07/26 10:12:52;;;;;;;7.13;1.58;;;;;;;25.34;100.00;100374.69;5060289;28;20135;-78
2023/07/26 10:15:38;;;;;;;3.47;1.70;;;;;;;25.47;100.00;100375.16;5076351;28;20036;-78
2023/07/26 10:18:24;;;;;;;3.35;1.60;;;;;;;25.60;100.00;100382.09;5039963;28;20044;-78
2023/07/26 10:21:10;;;;;;;7.13;2.00;;;;;;;25.74;100.00;100387.03;5081006;28;20480;-78
2023/07/26 10:23:57;;;;;;;4.72;1.58;;;;;;;25.85;100.00;100377.38;5067868;28;20036;-78
2023/07/26 10:26:43;;;;;;;6.93;1.50;;;;;;;26.04;100.00;100381.06;5057916;28;20048;-78
2023/07/26 10:29:29;;;;;;;6.07;1.52;;;;;;;26.18;96.08;100372.56;5074825;28;20031;-78
2023/07/26 10:32:15;;;;;;;3.45;1.50;;;;;;;26.26;100.00;100365.66;5073843;28;20035;-78
2023/07/26 10:35:01;;;;;;;5.10;1.50;;;;;;;26.44;100.00;100368.53;5049714;28;20051;-78
2023/07/26 10:37:47;;;;;;;5.45;1.17;;;;;;;26.64;99.15;100371.00;5064023;28;20033;-78
2023/07/26 10:40:37;;;;;;;5.70;1.50;;;;;;;26.91;95.68;100362.81;5070851;28;20042;-78
2023/07/26 10:43:22;;;;;;;3.95;1.38;;;;;;;27.11;92.30;100368.91;5074610;28;20111;-79
2023/07/26 10:46:10;;;;;;;8.32;1.50;;;;;;;27.38;90.80;100370.06;5074918;28;20031;-78
2023/07/26 10:48:56;;;;;;;6.40;1.55;;;;;;;27.55;89.38;100359.84;5052969;28;20037;-79
2023/07/26 10:52:02;;;;;;;7.68;1.30;;;;;;;27.79;86.95;100363.81;5052958;28;20063;-79
2023/07/26 10:54:49;;;;;;;4.75;1.15;;;;;;;27.88;83.19;100362.53;5082921;28;20127;-79
2023/07/26 10:57:36;;;;;;;6.78;1.17;;;;;;;27.89;82.05;100361.31;5067339;28;20032;-79
2023/07/26 11:00:32;;;;;;;3.53;0.93;;;;;;;27.93;82.98;100356.41;5079830;28;20031;-79
2023/07/26 11:03:24;;;;;;;5.88;1.20;;;;;;;27.87;84.22;100355.22;5060981;28;20031;-79
2023/07/26 11:06:10;;;;;;;5.10;1.38;;;;;;;27.90;85.42;100365.81;5059448;28;20035;-79
2023/07/26 11:08:56;;;;;;;7.07;1.30;;;;;;;27.88;85.58;100366.19;5069418;28;20103;-79
2023/07/26 11:11:52;;;;;;;5.65;1.42;;;;;;;27.79;84.25;100371.53;5051963;28;20493;-78
2023/07/26 11:14:37;;;;;;;4.00;1.33;;;;;;;27.76;86.25;100361.75;5074395;28;20035;-79
2023/07/26 11:17:23;;;;;;;4.45;1.40;;;;;;;27.67;87.13;100354.91;5057941;28;20033;-79
2023/07/26 11:20:12;;;;;;;5.40;1.25;;;;;;;27.68;89.21;100350.81;5058915;28;20186;-79
2023/07/26 11:22:58;;;;;;;5.38;1.05;;;;;;;27.65;87.04;100352.44;5068120;28;20078;-79
2023/07/26 11:25:47;;;;;;;6.70;1.52;;;;;;;27.62;86.16;100341.88;5066962;28;20136;-79
2023/07/26 11:28:33;;;;;;;4.20;1.08;;;;;;;27.65;88.66;100338.19;5066652;28;20042;-79
2023/07/26 11:31:19;;;;;;;5.32;1.30;;;;;;;27.64;89.61;100342.28;5058892;28;20136;-79
2023/07/26 11:34:19;;;;;;;2.60;0.90;;;;;;;27.77;89.23;100346.25;5081287;28;20061;-79
2023/07/26 11:37:08;;;;;;;2.80;0.95;;;;;;;27.84;87.19;100342.59;5043114;28;20372;-79
2023/07/26 11:40:03;;;;;;;7.88;1.20;;;;;;;27.92;85.51;100344.19;5096342;28;20036;-79
2023/07/26 11:42:49;;;;;;;6.88;1.38;;;;;;;28.01;88.75;100346.56;5079120;28;20115;-79
2023/07/26 11:45:36;;;;;;;4.55;1.10;;;;;;;27.96;88.70;100330.69;5074698;28;20033;-79
2023/07/26 11:48:22;;;;;;;5.28;1.02;;;;;;;27.98;86.32;100328.22;5056837;28;20106;-79
2023/07/26 11:51:08;;;;;;;2.83;1.00;;;;;;;27.94;85.61;100320.91;5061997;28;20532;-79
2023/07/26 11:53:56;;;;;;;3.40;1.10;;;;;;;27.88;83.08;100317.69;5077773;28;20028;-79
2023/07/26 11:56:43;;;;;;;3.17;1.05;;;;;;;27.91;86.31;100328.28;5060340;28;20115;-79
2023/07/26 11:59:28;;;;;;;3.90;1.13;;;;;;;27.94;88.15;100332.34;5057979;28;20035;-79
2023/07/26 12:02:14;;;;;;;3.00;1.00;;;;;;;28.11;87.96;100342.00;5074429;28;20033;-79
2023/07/26 12:05:15;;;;;;;4.75;1.20;;;;;;;28.22;87.46;100349.28;5078143;28;20539;-79
2023/07/26 12:08:04;;;;;;;4.00;1.25;;;;;;;28.34;85.77;100347.16;5096155;28;20036;-79
2023/07/26 12:10:50;;;;;;;4.20;1.00;;;;;;;28.43;85.79;100353.22;5085029;28;20035;-79
2023/07/26 12:13:36;;;;;;;3.47;1.10;;;;;;;28.43;84.19;100344.66;5069594;28;20045;-79
2023/07/26 12:16:28;;;;;;;2.13;0.93;;;;;;;28.47;82.65;100348.28;5054541;28;20051;-79
2023/07/26 12:19:14;;;;;;;2.07;0.80;;;;;;;28.39;82.76;100343.84;5093406;28;20555;-79
2023/07/26 12:22:01;;;;;;;4.13;1.40;;;;;;;28.33;84.34;100340.63;5069625;28;20487;-79
2023/07/26 12:24:51;;;;;;;3.88;1.35;;;;;;;28.21;86.81;100352.53;5055221;28;20043;-79
2023/07/26 12:27:37;;;;;;;4.40;1.30;;;;;;;28.06;87.92;100346.94;5062547;28;20114;-79
2023/07/26 12:30:23;;;;;;;3.70;1.02;;;;;;;27.89;88.07;100347.03;5057707;28;20115;-79
2023/07/26 12:33:13;;;;;;;4.18;1.15;;;;;;;27.74;88.04;100332.81;5084817;28;20036;-79
2023/07/26 12:35:59;;;;;;;3.63;0.80;;;;;;;27.59;88.41;100322.72;5051945;28;20040;-79
2023/07/26 12:38:45;;;;;;;3.20;0.95;;;;;;;27.46;91.48;100318.72;5069887;28;20043;-79
2023/07/26 12:41:31;;;;;;;1.63;0.50;;;;;;;27.33;92.81;100327.75;5071332;28;20066;-79
2023/07/26 12:44:17;;;;;;;1.63;0.60;;;;;;;27.25;93.94;100331.03;5067764;28;20028;-79
2023/07/26 12:47:03;;;;;;;2.05;0.60;;;;;;;27.20;96.78;100323.72;5062132;28;20074;-79